Terminal Aerodrome Forecast
Issued by NWS

Home | Current Version | Previous Version | Text Only | Print | Product List | Glossary On
Versions: 1 2 3 4 5 6 7 8 9 10 11 12 13 14 15
000
FTUS45 KABQ 260538
TAFAEG
TAF
KAEG 260538Z 2606/2706 34010KT P6SM VCSH SCT090 BKN120
      TEMPO 2606/2608 VRB15G25KT -SHRA BKN070
     FM260800 03007KT P6SM -SHRA BKN080
     FM261100 VRB05KT P6SM BKN130
     FM261700 VRB05KT P6SM SCT070
     FM270000 02011KT P6SM VCSH BKN080
     FM270100 12010KT P6SM VCTS BKN070CB OVC120
     FM270300 VRB05KT P6SM VCSH BKN080=

USA.gov is the U.S. government's official web portal to all federal, state and local government web resources and services.